Terminal Aerodrome Forecast
Issued by NWS Charleston, WV

Current Version | Previous Version | Graphics & Text | Print | Product List | Glossary On
Versions: 1 2 3 4 5 6 7 8 9 10 11 12 13 14 15 16 17 18 19 20 21 22 23 24 25
724
FTUS41 KRLX 291207 AAA
TAFHTS
TAF AMD
KHTS 291207Z 2912/3012 VRB03KT 5SM HZ SCT010
     FM291300 27005KT 6SM HZ SCT020
     FM291500 27006KT P6SM BKN035
     FM291900 32006KT P6SM SCT050
     FM300200 VRB03KT P6SM BKN100=

USA.gov is the U.S. government's official web portal to all federal, state and local government web resources and services.